Time;durP1;ratioP1;P1;durP2;ratioP2;P2;SDS_P1;SDS_P2;PMS_P1;PMS_P2;Temp;Humidity;BMP_temperature;BMP_pressure;BME280_temperature;BME280_humidity;BME280_pressure;Samples;Min_cycle;Max_cycle;Signal;HPM_P1;HPM_P2
2023/04/19 00:02:02;;;;;;;0.77;0.77;;;;;;;;;;5020355;28;58967;-58
2023/04/19 00:04:28;;;;;;;0.80;0.80;;;;;;;;;;5021627;28;58483;-57
2023/04/19 00:06:53;;;;;;;0.60;0.60;;;;;;;;;;5023751;28;59133;-60
2023/04/19 00:09:19;;;;;;;0.73;0.73;;;;;;;;;;5021413;28;58358;-58
2023/04/19 00:11:44;;;;;;;0.83;0.83;;;;;;;;;;5019895;28;58816;-58
2023/04/19 00:14:09;;;;;;;0.90;0.90;;;;;;;;;;5018331;28;60216;-60
2023/04/19 00:16:34;;;;;;;0.73;0.73;;;;;;;;;;5023213;28;58606;-59
2023/04/19 00:19:00;;;;;;;0.60;0.60;;;;;;;;;;5021163;28;58593;-60
2023/04/19 00:21:26;;;;;;;0.75;0.70;;;;;;;;;;5018604;28;59678;-57
2023/04/19 00:23:52;;;;;;;0.75;0.75;;;;;;;;;;5020059;27;58393;-58
2023/04/19 00:26:17;;;;;;;0.63;0.63;;;;;;;;;;5019721;28;59984;-60
2023/04/19 00:28:43;;;;;;;0.80;0.80;;;;;;;;;;5022156;28;59263;-60
2023/04/19 00:31:08;;;;;;;0.70;0.70;;;;;;;;;;5019882;28;59344;-60
2023/04/19 00:33:33;;;;;;;1.50;0.80;;;;;;;;;;5023899;28;58391;-60
2023/04/19 00:35:58;;;;;;;0.73;0.73;;;;;;;;;;5021171;27;58642;-60
2023/04/19 00:38:23;;;;;;;1.52;0.77;;;;;;;;;;5022136;28;58447;-60
2023/04/19 00:40:48;;;;;;;1.05;0.80;;;;;;;;;;5020982;28;58593;-59
2023/04/19 00:43:17;;;;;;;1.05;1.05;;;;;;;;;;5023016;27;58440;-58
2023/04/19 00:45:42;;;;;;;1.00;0.93;;;;;;;;;;5024426;28;59106;-60
2023/04/19 00:48:08;;;;;;;0.70;0.70;;;;;;;;;;5023615;27;58510;-60
2023/04/19 00:50:34;;;;;;;1.00;0.63;;;;;;;;;;5025935;27;59485;-60
2023/04/19 00:52:59;;;;;;;0.73;0.73;;;;;;;;;;5022950;28;58367;-58
2023/04/19 00:55:25;;;;;;;1.48;0.95;;;;;;;;;;5023255;28;58785;-60
2023/04/19 00:57:50;;;;;;;0.70;0.70;;;;;;;;;;5024829;28;58562;-60
2023/04/19 01:00:16;;;;;;;0.60;0.60;;;;;;;;;;5024982;28;58950;-60
2023/04/19 01:02:41;;;;;;;1.15;1.05;;;;;;;;;;5025963;28;58370;-60
2023/04/19 01:05:06;;;;;;;0.83;0.83;;;;;;;;;;5026296;27;58418;-60
2023/04/19 01:07:34;;;;;;;0.90;0.80;;;;;;;;;;5022735;28;59483;-60
2023/04/19 01:10:00;;;;;;;;;;;;;;;;;;5024653;28;58237;-60
2023/04/19 01:12:25;;;;;;;0.50;0.50;;;;;;;;;;5024587;28;59004;-60
2023/04/19 01:14:50;;;;;;;0.77;0.77;;;;;;;;;;5025010;28;58667;-59
2023/04/19 01:17:16;;;;;;;0.93;0.93;;;;;;;;;;5026326;27;58819;-60
2023/04/19 01:19:41;;;;;;;0.70;0.70;;;;;;;;;;5025558;28;59038;-57
2023/04/19 01:22:08;;;;;;;0.70;0.70;;;;;;;;;;5024869;28;58796;-60
2023/04/19 01:24:33;;;;;;;0.80;0.80;;;;;;;;;;5025185;28;58462;-60
2023/04/19 01:26:58;;;;;;;0.63;0.60;;;;;;;;;;5023332;28;58827;-59
2023/04/19 01:29:23;;;;;;;0.70;0.60;;;;;;;;;;5023866;28;58884;-59
2023/04/19 01:31:52;;;;;;;0.70;0.70;;;;;;;;;;5023844;28;58663;-59
2023/04/19 01:34:17;;;;;;;0.65;0.65;;;;;;;;;;5021974;28;59366;-60
2023/04/19 01:36:42;;;;;;;0.50;0.50;;;;;;;;;;5027042;28;58251;-58
2023/04/19 01:39:07;;;;;;;0.90;0.90;;;;;;;;;;5024867;28;58818;-60
2023/04/19 01:41:33;;;;;;;0.60;0.60;;;;;;;;;;5022020;28;58627;-59
2023/04/19 01:43:59;;;;;;;0.90;0.90;;;;;;;;;;5028593;28;58528;-59
2023/04/19 01:46:24;;;;;;;0.95;0.95;;;;;;;;;;5021104;28;59023;-57
2023/04/19 01:48:49;;;;;;;1.02;0.75;;;;;;;;;;5025602;28;58527;-58
2023/04/19 01:51:16;;;;;;;0.70;0.70;;;;;;;;;;5022969;28;58450;-59
2023/04/19 01:53:41;;;;;;;0.90;0.88;;;;;;;;;;5021515;27;58461;-59
2023/04/19 01:56:06;;;;;;;0.80;0.80;;;;;;;;;;5023002;28;58459;-59
2023/04/19 01:58:31;;;;;;;0.70;0.70;;;;;;;;;;5022438;28;58631;-59
2023/04/19 02:00:56;;;;;;;0.80;0.80;;;;;;;;;;5021541;28;59045;-58
2023/04/19 02:03:21;;;;;;;0.77;0.75;;;;;;;;;;5022967;28;58991;-59
2023/04/19 02:05:46;;;;;;;0.93;0.85;;;;;;;;;;5020569;28;58464;-59
2023/04/19 02:08:12;;;;;;;0.60;0.60;;;;;;;;;;5024000;28;58351;-59
2023/04/19 02:10:37;;;;;;;0.73;0.73;;;;;;;;;;5019786;28;58360;-58
2023/04/19 02:13:02;;;;;;;0.52;0.52;;;;;;;;;;5020091;28;58515;-59
2023/04/19 02:15:27;;;;;;;0.70;0.70;;;;;;;;;;5024811;28;58380;-59
2023/04/19 02:17:52;;;;;;;0.70;0.70;;;;;;;;;;5025204;28;58389;-59
2023/04/19 02:20:18;;;;;;;0.60;0.60;;;;;;;;;;5022966;27;59440;-59
2023/04/19 02:22:43;;;;;;;0.60;0.60;;;;;;;;;;5022916;28;59341;-58
2023/04/19 02:25:08;;;;;;;0.67;0.67;;;;;;;;;;5025270;28;58875;-59
2023/04/19 02:27:33;;;;;;;1.00;0.90;;;;;;;;;;5024159;28;58458;-60
2023/04/19 02:29:58;;;;;;;0.57;0.57;;;;;;;;;;5025223;27;58107;-59
2023/04/19 02:32:23;;;;;;;0.65;0.65;;;;;;;;;;5021823;28;58769;-59
2023/04/19 02:34:48;;;;;;;0.60;0.60;;;;;;;;;;5025743;28;58390;-58
2023/04/19 02:37:14;;;;;;;0.60;0.60;;;;;;;;;;5027708;28;59009;-59
2023/04/19 02:39:41;;;;;;;0.73;0.73;;;;;;;;;;5022102;28;58814;-59
2023/04/19 02:42:06;;;;;;;0.90;0.90;;;;;;;;;;5024351;28;58325;-56
2023/04/19 02:44:31;;;;;;;1.40;1.30;;;;;;;;;;5022660;28;58908;-58
2023/04/19 02:46:56;;;;;;;0.45;0.45;;;;;;;;;;5023042;28;59450;-59
2023/04/19 02:49:22;;;;;;;0.90;0.70;;;;;;;;;;5022738;28;59438;-59
2023/04/19 02:51:47;;;;;;;0.80;0.80;;;;;;;;;;5021363;28;58946;-55
2023/04/19 02:54:12;;;;;;;0.90;0.90;;;;;;;;;;5023668;28;58529;-59
2023/04/19 02:56:38;;;;;;;0.80;0.80;;;;;;;;;;5024521;28;58701;-59
2023/04/19 02:59:03;;;;;;;0.73;0.73;;;;;;;;;;5023671;28;58951;-59
2023/04/19 03:01:29;;;;;;;1.13;0.80;;;;;;;;;;5021458;28;58222;-58
2023/04/19 03:03:54;;;;;;;0.75;0.75;;;;;;;;;;5021517;28;58865;-58
2023/04/19 03:06:19;;;;;;;0.60;0.60;;;;;;;;;;5018785;28;58535;-57
2023/04/19 03:08:44;;;;;;;0.52;0.52;;;;;;;;;;5023216;27;58390;-59
2023/04/19 03:11:10;;;;;;;0.67;0.67;;;;;;;;;;5020492;28;58869;-59
2023/04/19 03:13:35;;;;;;;0.70;0.70;;;;;;;;;;5022378;28;59300;-59
2023/04/19 03:16:00;;;;;;;0.60;0.60;;;;;;;;;;5020342;28;59316;-59
2023/04/19 03:18:26;;;;;;;0.60;0.60;;;;;;;;;;5022269;28;59408;-59
2023/04/19 03:20:51;;;;;;;0.80;0.80;;;;;;;;;;5023690;28;58460;-58
2023/04/19 03:23:16;;;;;;;0.73;0.73;;;;;;;;;;5022842;27;59660;-55
2023/04/19 03:25:41;;;;;;;0.80;0.80;;;;;;;;;;5022849;27;58822;-59
2023/04/19 03:28:06;;;;;;;1.07;0.77;;;;;;;;;;5021239;28;58779;-57
2023/04/19 03:30:31;;;;;;;0.80;0.80;;;;;;;;;;5024414;28;59088;-59
2023/04/19 03:32:58;;;;;;;0.75;0.75;;;;;;;;;;5021720;28;58547;-59
2023/04/19 03:35:25;;;;;;;0.70;0.63;;;;;;;;;;5021451;28;59137;-59
2023/04/19 03:37:50;;;;;;;0.80;0.77;;;;;;;;;;5021400;28;58435;-59
2023/04/19 03:40:15;;;;;;;0.73;0.73;;;;;;;;;;5022886;27;58684;-58
2023/04/19 03:42:40;;;;;;;0.65;0.65;;;;;;;;;;5022667;28;59101;-58
2023/04/19 03:45:05;;;;;;;0.60;0.60;;;;;;;;;;5023397;28;58507;-59
2023/04/19 03:47:31;;;;;;;0.70;0.70;;;;;;;;;;5023984;28;58375;-58
2023/04/19 03:49:56;;;;;;;0.60;0.60;;;;;;;;;;5025893;28;59043;-59
2023/04/19 03:52:21;;;;;;;0.85;0.85;;;;;;;;;;5021004;28;58818;-59
2023/04/19 03:54:46;;;;;;;0.63;0.63;;;;;;;;;;5021166;28;58829;-59
2023/04/19 03:57:13;;;;;;;0.63;0.63;;;;;;;;;;5020002;28;58447;-59
2023/04/19 03:59:38;;;;;;;0.68;0.68;;;;;;;;;;5021513;28;58496;-59
2023/04/19 04:02:04;;;;;;;1.23;1.00;;;;;;;;;;5022596;28;58945;-59
2023/04/19 04:04:30;;;;;;;0.68;0.68;;;;;;;;;;5020507;28;58767;-58
2023/04/19 04:06:55;;;;;;;0.80;0.80;;;;;;;;;;5023061;28;58501;-59
2023/04/19 04:09:20;;;;;;;2.08;0.63;;;;;;;;;;5021820;28;64119;-57
2023/04/19 04:11:46;;;;;;;0.60;0.60;;;;;;;;;;5022300;28;58671;-57
2023/04/19 04:14:11;;;;;;;0.65;0.60;;;;;;;;;;5023123;28;58398;-59
2023/04/19 04:16:36;;;;;;;0.73;0.73;;;;;;;;;;5022195;28;58630;-59
2023/04/19 04:19:01;;;;;;;0.85;0.60;;;;;;;;;;5026720;28;58453;-55
2023/04/19 04:21:27;;;;;;;0.73;0.73;;;;;;;;;;5022502;28;60057;-57
2023/04/19 04:23:52;;;;;;;0.60;0.60;;;;;;;;;;5019756;28;58592;-59
2023/04/19 04:26:18;;;;;;;0.90;0.80;;;;;;;;;;5026160;28;58770;-59
2023/04/19 04:28:44;;;;;;;0.77;0.77;;;;;;;;;;5023675;28;58452;-59
2023/04/19 04:31:11;;;;;;;0.60;0.60;;;;;;;;;;5022135;28;58877;-59
2023/04/19 04:33:37;;;;;;;0.90;0.90;;;;;;;;;;5025035;28;58558;-59
2023/04/19 04:36:02;;;;;;;0.85;0.60;;;;;;;;;;5021843;28;58742;-58
2023/04/19 04:38:28;;;;;;;0.80;0.80;;;;;;;;;;5022809;28;58553;-59
2023/04/19 04:40:54;;;;;;;0.80;0.80;;;;;;;;;;5018833;28;59206;-60
2023/04/19 04:43:20;;;;;;;0.93;0.80;;;;;;;;;;5023718;28;58593;-60
2023/04/19 04:45:45;;;;;;;0.70;0.70;;;;;;;;;;5028592;28;58835;-61
2023/04/19 04:48:11;;;;;;;1.33;0.90;;;;;;;;;;5020689;28;58388;-60
2023/04/19 04:50:36;;;;;;;1.67;0.80;;;;;;;;;;5022123;28;58799;-58
2023/04/19 04:53:01;;;;;;;0.73;0.73;;;;;;;;;;5025072;28;58570;-58
2023/04/19 04:55:26;;;;;;;1.03;0.93;;;;;;;;;;5025094;28;58445;-59
2023/04/19 04:57:51;;;;;;;1.43;1.33;;;;;;;;;;5023222;28;58451;-59
2023/04/19 05:00:17;;;;;;;1.80;1.30;;;;;;;;;;5020720;28;58636;-58
2023/04/19 05:02:42;;;;;;;2.80;1.10;;;;;;;;;;5022205;28;58363;-59
2023/04/19 05:05:10;;;;;;;1.85;1.02;;;;;;;;;;5018536;28;58400;-59
2023/04/19 05:07:35;;;;;;;1.48;1.30;;;;;;;;;;5018595;27;59413;-59
2023/04/19 05:10:00;;;;;;;5.88;1.98;;;;;;;;;;5021513;28;58749;-59
2023/04/19 05:12:25;;;;;;;3.70;1.50;;;;;;;;;;5016653;28;58346;-57
2023/04/19 05:14:50;;;;;;;4.23;1.57;;;;;;;;;;5019159;28;58689;-59
2023/04/19 05:17:15;;;;;;;5.63;1.55;;;;;;;;;;5025576;28;58816;-59
2023/04/19 05:19:40;;;;;;;3.42;1.63;;;;;;;;;;5028095;28;58761;-59
2023/04/19 05:22:06;;;;;;;1.98;1.40;;;;;;;;;;5027380;28;58290;-59
2023/04/19 05:24:31;;;;;;;1.13;1.00;;;;;;;;;;5028978;28;58468;-59
2023/04/19 05:26:56;;;;;;;2.13;1.25;;;;;;;;;;5026998;28;58337;-59
2023/04/19 05:29:21;;;;;;;3.53;1.30;;;;;;;;;;5026456;28;58756;-59
2023/04/19 05:31:46;;;;;;;9.65;1.75;;;;;;;;;;5032736;28;58702;-58
2023/04/19 05:34:11;;;;;;;2.97;1.30;;;;;;;;;;5032660;28;59151;-59
2023/04/19 05:36:36;;;;;;;2.37;1.23;;;;;;;;;;5029952;28;58699;-59
2023/04/19 05:39:02;;;;;;;3.20;1.30;;;;;;;;;;5030049;28;58823;-58
2023/04/19 05:41:27;;;;;;;1.67;1.02;;;;;;;;;;5028780;28;58525;-59
2023/04/19 05:43:52;;;;;;;1.92;1.83;;;;;;;;;;5030833;27;58763;-60
2023/04/19 05:46:17;;;;;;;3.83;1.30;;;;;;;;;;5030992;28;58904;-59
2023/04/19 05:48:42;;;;;;;1.98;1.52;;;;;;;;;;5027657;28;59267;-59
2023/04/19 05:51:07;;;;;;;1.45;1.35;;;;;;;;;;5031008;27;58497;-55
2023/04/19 05:53:33;;;;;;;3.23;1.83;;;;;;;;;;5031465;28;58485;-58
2023/04/19 05:55:58;;;;;;;1.40;1.07;;;;;;;;;;5029616;28;58739;-56
2023/04/19 05:58:23;;;;;;;1.17;0.97;;;;;;;;;;5030265;27;58197;-59
2023/04/19 06:00:50;;;;;;;2.23;1.73;;;;;;;;;;5032517;28;58890;-57
2023/04/19 06:03:15;;;;;;;0.73;0.73;;;;;;;;;;5029891;28;58740;-59
2023/04/19 06:05:40;;;;;;;1.17;1.07;;;;;;;;;;5031216;28;58604;-58
2023/04/19 06:08:06;;;;;;;2.05;1.30;;;;;;;;;;5032048;28;58791;-59
2023/04/19 06:10:31;;;;;;;3.50;1.77;;;;;;;;;;5026126;28;58191;-59
2023/04/19 06:12:56;;;;;;;1.27;1.17;;;;;;;;;;5031446;27;58734;-59
2023/04/19 06:15:21;;;;;;;2.33;1.23;;;;;;;;;;5033809;28;58708;-59
2023/04/19 06:17:46;;;;;;;2.13;0.73;;;;;;;;;;5016545;28;58108;-59
2023/04/19 06:20:11;;;;;;;3.23;0.97;;;;;;;;;;5021482;28;59502;-59
2023/04/19 06:22:43;;;;;;;0.60;0.60;;;;;;;;;;5030754;28;59100;-59
2023/04/19 06:25:09;;;;;;;1.27;0.80;;;;;;;;;;5031819;28;58566;-59
2023/04/19 06:27:34;;;;;;;1.37;0.90;;;;;;;;;;5030932;28;58472;-59
2023/04/19 06:29:59;;;;;;;1.45;1.20;;;;;;;;;;5031741;28;58229;-59
2023/04/19 06:32:25;;;;;;;1.80;1.38;;;;;;;;;;5029091;28;58523;-59
2023/04/19 06:34:50;;;;;;;3.07;1.27;;;;;;;;;;5027128;28;58804;-57
2023/04/19 06:37:15;;;;;;;1.73;0.90;;;;;;;;;;5028490;28;58491;-59
2023/04/19 06:39:40;;;;;;;0.87;0.80;;;;;;;;;;5029258;28;58250;-59
2023/04/19 06:42:05;;;;;;;1.10;0.73;;;;;;;;;;5030316;28;58575;-59
2023/04/19 06:44:31;;;;;;;0.80;0.80;;;;;;;;;;5032140;28;58106;-59
2023/04/19 06:46:56;;;;;;;1.27;0.70;;;;;;;;;;5028370;28;58606;-59
2023/04/19 06:49:21;;;;;;;0.90;0.85;;;;;;;;;;5030238;28;58593;-58
2023/04/19 06:51:46;;;;;;;0.70;0.70;;;;;;;;;;5031475;28;59065;-59
2023/04/19 06:54:11;;;;;;;2.17;1.10;;;;;;;;;;5027977;28;58696;-60
2023/04/19 06:56:41;;;;;;;0.80;0.80;;;;;;;;;;5032548;28;58852;-57
2023/04/19 06:59:06;;;;;;;2.00;1.63;;;;;;;;;;5029798;28;59289;-56
2023/04/19 07:01:31;;;;;;;1.40;0.73;;;;;;;;;;5029363;28;59448;-59
2023/04/19 07:03:56;;;;;;;1.02;0.80;;;;;;;;;;5030276;28;58663;-59
2023/04/19 07:06:21;;;;;;;0.73;0.70;;;;;;;;;;5029760;28;58795;-59
2023/04/19 07:08:46;;;;;;;0.85;0.70;;;;;;;;;;5028971;28;58655;-59
2023/04/19 07:11:11;;;;;;;1.40;1.30;;;;;;;;;;5028934;28;58388;-58
2023/04/19 07:13:36;;;;;;;0.77;0.77;;;;;;;;;;5030155;28;58762;-58
2023/04/19 07:16:06;;;;;;;0.70;0.70;;;;;;;;;;5028034;28;58364;-59
2023/04/19 07:18:31;;;;;;;0.75;0.75;;;;;;;;;;5028685;28;58382;-56
2023/04/19 07:20:56;;;;;;;0.63;0.63;;;;;;;;;;5024631;28;58830;-59
2023/04/19 07:23:21;;;;;;;1.30;0.70;;;;;;;;;;5030466;28;58374;-58
2023/04/19 07:25:47;;;;;;;1.20;1.10;;;;;;;;;;5029626;28;58926;-58
2023/04/19 07:28:12;;;;;;;0.60;0.60;;;;;;;;;;5031823;28;58852;-59
2023/04/19 07:30:37;;;;;;;1.80;1.03;;;;;;;;;;5029082;28;59518;-58
2023/04/19 07:33:03;;;;;;;1.70;1.45;;;;;;;;;;5028281;28;58770;-59
2023/04/19 07:35:28;;;;;;;0.85;0.85;;;;;;;;;;5027930;28;58748;-59
2023/04/19 07:37:54;;;;;;;0.70;0.70;;;;;;;;;;5026797;28;58526;-59
2023/04/19 07:40:19;;;;;;;0.82;0.80;;;;;;;;;;5030257;28;60038;-59
2023/04/19 07:42:44;;;;;;;0.80;0.80;;;;;;;;;;5028683;28;58802;-58
2023/04/19 07:45:09;;;;;;;1.27;0.70;;;;;;;;;;5029089;28;58499;-58
2023/04/19 07:47:34;;;;;;;0.60;0.60;;;;;;;;;;5026547;28;58651;-59
2023/04/19 07:50:00;;;;;;;0.52;0.52;;;;;;;;;;5026228;28;58509;-59
2023/04/19 07:52:25;;;;;;;0.70;0.70;;;;;;;;;;5027128;28;58630;-58
2023/04/19 07:54:50;;;;;;;0.57;0.50;;;;;;;;;;5029741;28;58529;-58
2023/04/19 07:57:15;;;;;;;0.57;0.50;;;;;;;;;;5029997;28;58060;-58
2023/04/19 07:59:41;;;;;;;1.70;0.60;;;;;;;;;;5029512;28;58478;-58
2023/04/19 08:02:06;;;;;;;0.83;0.70;;;;;;;;;;5027159;28;58858;-59
2023/04/19 08:04:32;;;;;;;1.08;0.63;;;;;;;;;;5025739;28;58627;-59
2023/04/19 08:06:57;;;;;;;0.75;0.60;;;;;;;;;;5029568;28;58342;-58
2023/04/19 08:09:22;;;;;;;3.33;0.80;;;;;;;;;;5029290;28;58225;-57
2023/04/19 08:11:47;;;;;;;1.60;0.75;;;;;;;;;;5027758;28;59031;-59
2023/04/19 08:14:12;;;;;;;2.05;0.80;;;;;;;;;;5027033;28;58792;-58
2023/04/19 08:16:37;;;;;;;0.57;0.57;;;;;;;;;;5028214;28;58158;-58
2023/04/19 08:19:02;;;;;;;0.60;0.60;;;;;;;;;;5027815;28;58434;-57
2023/04/19 08:21:27;;;;;;;1.70;0.98;;;;;;;;;;5029822;28;58774;-58
2023/04/19 08:23:53;;;;;;;0.63;0.55;;;;;;;;;;5025819;28;58554;-58
2023/04/19 08:26:18;;;;;;;0.60;0.60;;;;;;;;;;5027255;28;58756;-59
2023/04/19 08:28:43;;;;;;;0.40;0.40;;;;;;;;;;5027922;28;58662;-58
2023/04/19 08:31:09;;;;;;;0.60;0.60;;;;;;;;;;5029989;28;58773;-59
2023/04/19 08:33:34;;;;;;;0.80;0.80;;;;;;;;;;5027253;28;58710;-59
2023/04/19 08:35:59;;;;;;;1.00;0.80;;;;;;;;;;5026362;28;59959;-59
2023/04/19 08:38:24;;;;;;;0.60;0.60;;;;;;;;;;5026936;28;58806;-58
2023/04/19 08:40:54;;;;;;;0.50;0.50;;;;;;;;;;5027291;28;58491;-59
2023/04/19 08:43:20;;;;;;;0.57;0.57;;;;;;;;;;5030856;28;59070;-58
2023/04/19 08:45:45;;;;;;;0.80;0.55;;;;;;;;;;5029642;28;58519;-59
2023/04/19 08:48:11;;;;;;;0.40;0.40;;;;;;;;;;5027722;28;58454;-58
2023/04/19 08:50:37;;;;;;;0.75;0.55;;;;;;;;;;5026660;28;58438;-59
2023/04/19 08:53:03;;;;;;;0.50;0.50;;;;;;;;;;5025586;28;58437;-58
2023/04/19 08:55:28;;;;;;;1.38;0.50;;;;;;;;;;5029811;28;58492;-58
2023/04/19 08:57:55;;;;;;;0.55;0.55;;;;;;;;;;5028460;28;58778;-59
2023/04/19 09:00:20;;;;;;;0.60;0.60;;;;;;;;;;5027666;28;59611;-58
2023/04/19 09:02:54;;;;;;;0.60;0.60;;;;;;;;;;5027603;28;58729;-58
2023/04/19 09:05:20;;;;;;;0.43;0.43;;;;;;;;;;5029995;28;59575;-58
2023/04/19 09:07:45;;;;;;;0.65;0.65;;;;;;;;;;5029193;28;58203;-57
2023/04/19 09:10:16;;;;;;;0.63;0.52;;;;;;;;;;5030660;28;58509;-58
2023/04/19 09:12:42;;;;;;;0.30;0.30;;;;;;;;;;5031272;28;59416;-61
2023/04/19 09:15:08;;;;;;;0.60;0.60;;;;;;;;;;5029214;28;59031;-56
2023/04/19 09:17:33;;;;;;;0.95;0.55;;;;;;;;;;5028970;28;58694;-58
2023/04/19 09:19:59;;;;;;;0.75;0.60;;;;;;;;;;5031704;28;58882;-57
2023/04/19 09:22:24;;;;;;;0.47;0.47;;;;;;;;;;5028335;28;58788;-58
2023/04/19 09:24:50;;;;;;;0.88;0.60;;;;;;;;;;5033653;28;58432;-58
2023/04/19 09:27:20;;;;;;;0.90;0.55;;;;;;;;;;5030120;28;57894;-58
2023/04/19 09:29:51;;;;;;;0.50;0.50;;;;;;;;;;5032952;28;59914;-58
2023/04/19 09:32:17;;;;;;;0.73;0.60;;;;;;;;;;5028323;28;58352;-58
2023/04/19 09:34:52;;;;;;;0.52;0.40;;;;;;;;;;5030944;28;58408;-58
2023/04/19 09:37:17;;;;;;;1.17;0.50;;;;;;;;;;5030131;28;58635;-59
2023/04/19 09:39:42;;;;;;;0.83;0.83;;;;;;;;;;5028077;28;58547;-59
2023/04/19 09:42:08;;;;;;;0.90;0.50;;;;;;;;;;5030524;28;58404;-59
2023/04/19 09:44:34;;;;;;;0.40;0.40;;;;;;;;;;5028834;28;58443;-59
2023/04/19 09:46:59;;;;;;;0.40;0.40;;;;;;;;;;5030142;28;57845;-59
2023/04/19 09:49:25;;;;;;;0.40;0.40;;;;;;;;;;5029164;28;59943;-58
2023/04/19 09:51:51;;;;;;;0.63;0.50;;;;;;;;;;5028424;28;58618;-59
2023/04/19 09:54:18;;;;;;;0.70;0.63;;;;;;;;;;5030829;28;59233;-59
2023/04/19 09:56:43;;;;;;;0.75;0.75;;;;;;;;;;5031213;28;59925;-58
2023/04/19 09:59:09;;;;;;;0.90;0.40;;;;;;;;;;5031138;28;58806;-59
2023/04/19 10:01:35;;;;;;;0.98;0.68;;;;;;;;;;5029120;28;59049;-58
2023/04/19 10:04:01;;;;;;;0.47;0.47;;;;;;;;;;5030030;28;58547;-57
2023/04/19 10:06:26;;;;;;;0.35;0.32;;;;;;;;;;5029262;28;58626;-61
2023/04/19 10:08:52;;;;;;;1.40;0.47;;;;;;;;;;5030867;28;58381;-57
2023/04/19 10:11:20;;;;;;;0.43;0.40;;;;;;;;;;5029044;28;59098;-58
2023/04/19 10:13:45;;;;;;;0.52;0.50;;;;;;;;;;5029278;28;58571;-58
2023/04/19 10:16:11;;;;;;;0.40;0.40;;;;;;;;;;5029731;28;58382;-58
2023/04/19 10:18:36;;;;;;;0.30;0.30;;;;;;;;;;5030819;28;58533;-58
2023/04/19 10:21:05;;;;;;;0.75;0.50;;;;;;;;;;5032387;28;59068;-58
2023/04/19 10:23:31;;;;;;;0.63;0.60;;;;;;;;;;5027519;28;59894;-57
2023/04/19 10:25:57;;;;;;;0.50;0.47;;;;;;;;;;5027182;28;58562;-58
2023/04/19 10:28:22;;;;;;;0.57;0.50;;;;;;;;;;5030928;28;58834;-56
2023/04/19 10:31:03;;;;;;;0.30;0.30;;;;;;;;;;5028514;28;58865;-55
2023/04/19 10:33:30;;;;;;;0.60;0.60;;;;;;;;;;5031707;28;58819;-58
2023/04/19 10:35:56;;;;;;;0.40;0.38;;;;;;;;;;5031312;28;58915;-58
2023/04/19 10:38:34;;;;;;;0.50;0.50;;;;;;;;;;5031478;28;58875;-58
2023/04/19 10:41:00;;;;;;;0.47;0.40;;;;;;;;;;5028850;28;58619;-60
2023/04/19 10:43:26;;;;;;;0.60;0.60;;;;;;;;;;5029551;28;58534;-61
2023/04/19 10:45:51;;;;;;;0.52;0.30;;;;;;;;;;5029964;28;58282;-58
2023/04/19 10:48:26;;;;;;;0.90;0.80;;;;;;;;;;5031922;28;58570;-60
2023/04/19 10:51:14;;;;;;;0.30;0.30;;;;;;;;;;5029225;28;58516;-58
2023/04/19 10:53:49;;;;;;;0.50;0.50;;;;;;;;;;5025620;28;58340;-60
2023/04/19 10:56:16;;;;;;;0.52;0.50;;;;;;;;;;5030368;28;59344;-59
2023/04/19 10:59:13;;;;;;;0.50;0.40;;;;;;;;;;5031073;28;57927;-60
2023/04/19 11:01:46;;;;;;;0.43;0.33;;;;;;;;;;5028254;28;58495;-59
2023/04/19 11:04:12;;;;;;;0.40;0.40;;;;;;;;;;5028556;28;58724;-60
2023/04/19 11:06:55;;;;;;;0.80;0.40;;;;;;;;;;5029985;28;58912;-59
2023/04/19 11:09:24;;;;;;;0.30;0.30;;;;;;;;;;5027781;28;58973;-59
2023/04/19 11:11:50;;;;;;;0.40;0.40;;;;;;;;;;5026990;28;58864;-59
2023/04/19 11:14:15;;;;;;;0.45;0.40;;;;;;;;;;5033072;28;58387;-60
2023/04/19 11:16:40;;;;;;;0.47;0.32;;;;;;;;;;5028929;28;58579;-59
2023/04/19 11:19:06;;;;;;;0.30;0.30;;;;;;;;;;5029986;28;58393;-59
2023/04/19 11:21:32;;;;;;;0.40;0.40;;;;;;;;;;5028684;28;58515;-58
2023/04/19 11:24:09;;;;;;;0.60;0.60;;;;;;;;;;5027522;28;59277;-60
2023/04/19 11:26:34;;;;;;;0.40;0.40;;;;;;;;;;5030561;28;58769;-60
2023/04/19 11:29:00;;;;;;;0.67;0.40;;;;;;;;;;5029607;28;59368;-59
2023/04/19 11:31:25;;;;;;;0.60;0.55;;;;;;;;;;5028037;28;58607;-58
2023/04/19 11:33:50;;;;;;;0.93;0.53;;;;;;;;;;5030819;28;58724;-59
2023/04/19 11:36:15;;;;;;;0.50;0.50;;;;;;;;;;5028377;28;59195;-59
2023/04/19 11:38:40;;;;;;;1.50;0.52;;;;;;;;;;5027551;28;58855;-58
2023/04/19 11:41:06;;;;;;;0.63;0.40;;;;;;;;;;5028526;28;58720;-59
2023/04/19 11:43:35;;;;;;;0.43;0.40;;;;;;;;;;5030343;28;59378;-59
2023/04/19 11:46:03;;;;;;;0.88;0.70;;;;;;;;;;5027418;28;58786;-60
2023/04/19 11:48:29;;;;;;;0.30;0.30;;;;;;;;;;5028362;28;58779;-59
2023/04/19 11:50:56;;;;;;;0.77;0.70;;;;;;;;;;5027028;28;58705;-60
2023/04/19 11:53:22;;;;;;;0.63;0.30;;;;;;;;;;5029643;28;58647;-60
2023/04/19 11:55:50;;;;;;;0.43;0.43;;;;;;;;;;5029474;28;58222;-61
2023/04/19 11:58:27;;;;;;;0.30;0.30;;;;;;;;;;5028463;28;58756;-60
2023/04/19 12:00:53;;;;;;;0.40;0.30;;;;;;;;;;5029059;28;58528;-60
2023/04/19 12:03:22;;;;;;;0.40;0.40;;;;;;;;;;5028192;28;58422;-59
2023/04/19 12:05:51;;;;;;;0.45;0.40;;;;;;;;;;5026181;28;59073;-58
2023/04/19 12:08:16;;;;;;;0.32;0.32;;;;;;;;;;5025901;28;58682;-60
2023/04/19 12:10:54;;;;;;;0.95;0.90;;;;;;;;;;5012879;28;59525;-58
2023/04/19 12:13:19;;;;;;;0.93;0.77;;;;;;;;;;5006801;28;58768;-60
2023/04/19 12:15:45;;;;;;;0.40;0.40;;;;;;;;;;5022694;28;58310;-65
2023/04/19 12:18:10;;;;;;;5.82;0.60;;;;;;;;;;5022667;28;59113;-58
2023/04/19 12:20:36;;;;;;;0.73;0.40;;;;;;;;;;5021228;28;58789;-58
2023/04/19 12:23:02;;;;;;;0.82;0.40;;;;;;;;;;5022164;28;59013;-59
2023/04/19 12:25:28;;;;;;;1.40;0.50;;;;;;;;;;5022518;28;58952;-58
2023/04/19 12:27:53;;;;;;;3.53;0.60;;;;;;;;;;5023034;28;58540;-56
2023/04/19 12:30:18;;;;;;;1.98;0.65;;;;;;;;;;5023963;28;58728;-58
2023/04/19 12:32:43;;;;;;;0.95;0.50;;;;;;;;;;5023048;28;58719;-57
2023/04/19 12:35:09;;;;;;;2.20;0.50;;;;;;;;;;5016777;28;58763;-58
2023/04/19 12:37:34;;;;;;;0.87;0.47;;;;;;;;;;5013572;28;58534;-59
2023/04/19 12:39:59;;;;;;;0.50;0.50;;;;;;;;;;5027130;28;58112;-58
2023/04/19 12:42:24;;;;;;;2.15;0.63;;;;;;;;;;5030591;28;58676;-59
2023/04/19 12:44:49;;;;;;;0.67;0.60;;;;;;;;;;5028654;28;58566;-59
2023/04/19 12:47:14;;;;;;;0.88;0.52;;;;;;;;;;5026536;28;58567;-55
2023/04/19 12:49:40;;;;;;;1.92;0.30;;;;;;;;;;5028082;28;58482;-58
2023/04/19 12:52:05;;;;;;;0.60;0.30;;;;;;;;;;5028254;28;58502;-58
2023/04/19 12:54:30;;;;;;;0.40;0.40;;;;;;;;;;5029085;28;58857;-59
2023/04/19 12:56:56;;;;;;;1.58;0.45;;;;;;;;;;5026235;28;58787;-56
2023/04/19 12:59:21;;;;;;;0.63;0.40;;;;;;;;;;5027453;28;58886;-59
2023/04/19 13:01:46;;;;;;;0.95;0.73;;;;;;;;;;5027047;28;58801;-56
2023/04/19 13:04:11;;;;;;;1.33;0.75;;;;;;;;;;5024716;28;58336;-56
2023/04/19 13:06:37;;;;;;;9.60;0.90;;;;;;;;;;5031108;28;59009;-57
2023/04/19 13:09:02;;;;;;;7.28;1.10;;;;;;;;;;5029175;28;58683;-58
2023/04/19 13:11:28;;;;;;;3.57;1.87;;;;;;;;;;5028469;28;59624;-58
2023/04/19 13:13:53;;;;;;;8.27;1.35;;;;;;;;;;5028265;28;58400;-54
2023/04/19 13:16:18;;;;;;;9.68;1.48;;;;;;;;;;5026431;28;58298;-57
2023/04/19 13:18:43;;;;;;;9.70;1.55;;;;;;;;;;5029160;28;58108;-57
2023/04/19 13:21:09;;;;;;;12.10;1.52;;;;;;;;;;5025667;28;58760;-56
2023/04/19 13:23:34;;;;;;;14.80;2.47;;;;;;;;;;5027554;28;58944;-56
2023/04/19 13:25:59;;;;;;;20.60;2.57;;;;;;;;;;5027381;28;58371;-57
2023/04/19 13:28:24;;;;;;;23.45;2.15;;;;;;;;;;5029321;28;58820;-59
2023/04/19 13:30:49;;;;;;;13.73;2.78;;;;;;;;;;5026937;28;58657;-58
2023/04/19 13:33:15;;;;;;;15.07;2.10;;;;;;;;;;5026843;28;58454;-58
2023/04/19 13:35:40;;;;;;;10.87;1.27;;;;;;;;;;5025630;28;59256;-56
2023/04/19 13:38:05;;;;;;;8.45;1.45;;;;;;;;;;5024345;28;58341;-56
2023/04/19 13:40:30;;;;;;;10.23;1.77;;;;;;;;;;5026964;28;58808;-59
2023/04/19 13:42:55;;;;;;;3.27;1.93;;;;;;;;;;5027157;28;58631;-56
2023/04/19 13:45:20;;;;;;;6.63;0.77;;;;;;;;;;5026303;28;58156;-58
2023/04/19 13:47:46;;;;;;;10.63;1.27;;;;;;;;;;5026519;28;58392;-56
2023/04/19 13:50:11;;;;;;;2.83;0.65;;;;;;;;;;5026716;28;58662;-59
2023/04/19 13:52:36;;;;;;;7.30;1.33;;;;;;;;;;5028042;28;58506;-64
2023/04/19 13:55:02;;;;;;;4.22;1.60;;;;;;;;;;5028840;28;58219;-66
2023/04/19 13:57:27;;;;;;;8.73;1.50;;;;;;;;;;5031489;28;59319;-64
2023/04/19 13:59:52;;;;;;;4.63;1.00;;;;;;;;;;5031062;28;58676;-59
2023/04/19 14:02:17;;;;;;;2.97;0.77;;;;;;;;;;5028606;28;58613;-57
2023/04/19 14:04:42;;;;;;;3.23;1.07;;;;;;;;;;5030070;28;58235;-58
2023/04/19 14:07:08;;;;;;;4.88;1.08;;;;;;;;;;5031552;28;58615;-58
2023/04/19 14:09:34;;;;;;;2.85;0.68;;;;;;;;;;5030262;28;58548;-59
2023/04/19 14:11:59;;;;;;;1.75;0.75;;;;;;;;;;5027926;28;58409;-58
2023/04/19 14:14:25;;;;;;;3.08;0.90;;;;;;;;;;5026933;28;58435;-58
2023/04/19 14:16:50;;;;;;;2.45;0.65;;;;;;;;;;5029165;28;58685;-57
2023/04/19 14:19:15;;;;;;;3.33;0.82;;;;;;;;;;5029881;28;59122;-58
2023/04/19 14:21:40;;;;;;;4.80;1.07;;;;;;;;;;5032236;28;58600;-58
2023/04/19 14:24:06;;;;;;;9.27;1.30;;;;;;;;;;5029177;28;58333;-65
2023/04/19 14:26:31;;;;;;;2.63;0.65;;;;;;;;;;5029665;28;58470;-59
2023/04/19 14:28:56;;;;;;;5.97;0.82;;;;;;;;;;5029617;28;58512;-57
2023/04/19 14:31:22;;;;;;;1.90;0.70;;;;;;;;;;5024991;28;58715;-58
2023/04/19 14:33:47;;;;;;;3.03;0.88;;;;;;;;;;5021063;28;58383;-57
2023/04/19 14:36:12;;;;;;;4.30;1.02;;;;;;;;;;5022466;28;58628;-58